sensor_id;sensor_type;location;lat;lon;timestamp;P1;durP1;ratioP1;P2;durP2;ratioP2
24325;SDS011;12448;45.532;5.290;2022-10-13T00:02:05;25.70;;;16.65;;
24325;SDS011;12448;45.532;5.290;2022-10-13T00:15:16;20.75;;;15.07;;
24325;SDS011;12448;45.532;5.290;2022-10-13T00:18:37;24.50;;;15.30;;
24325;SDS011;12448;45.532;5.290;2022-10-13T00:28:00;26.10;;;14.80;;
24325;SDS011;12448;45.532;5.290;2022-10-13T00:30:25;25.90;;;15.30;;
24325;SDS011;12448;45.532;5.290;2022-10-13T00:32:51;24.95;;;16.23;;
24325;SDS011;12448;45.532;5.290;2022-10-13T00:35:20;33.40;;;15.73;;
24325;SDS011;12448;45.532;5.290;2022-10-13T00:37:45;26.55;;;16.63;;
24325;SDS011;12448;45.532;5.290;2022-10-13T00:40:11;24.65;;;14.27;;
24325;SDS011;12448;45.532;5.290;2022-10-13T00:42:39;23.77;;;13.90;;
24325;SDS011;12448;45.532;5.290;2022-10-13T00:45:09;17.77;;;11.85;;
24325;SDS011;12448;45.532;5.290;2022-10-13T00:47:52;18.75;;;11.07;;
24325;SDS011;12448;45.532;5.290;2022-10-13T00:54:07;16.40;;;9.57;;
24325;SDS011;12448;45.532;5.290;2022-10-13T01:00:38;22.13;;;12.77;;
24325;SDS011;12448;45.532;5.290;2022-10-13T01:03:26;20.05;;;13.50;;
24325;SDS011;12448;45.532;5.290;2022-10-13T01:06:12;17.20;;;12.43;;
24325;SDS011;12448;45.532;5.290;2022-10-13T01:09:14;16.27;;;12.00;;
24325;SDS011;12448;45.532;5.290;2022-10-13T01:12:19;25.05;;;12.15;;
24325;SDS011;12448;45.532;5.290;2022-10-13T01:38:33;24.45;;;13.55;;
24325;SDS011;12448;45.532;5.290;2022-10-13T01:45:10;24.75;;;14.05;;
24325;SDS011;12448;45.532;5.290;2022-10-13T01:47:42;17.88;;;11.77;;
24325;SDS011;12448;45.532;5.290;2022-10-13T01:50:10;26.10;;;12.65;;
24325;SDS011;12448;45.532;5.290;2022-10-13T01:52:37;18.20;;;11.77;;
24325;SDS011;12448;45.532;5.290;2022-10-13T01:55:06;23.58;;;11.65;;
24325;SDS011;12448;45.532;5.290;2022-10-13T02:09:58;21.67;;;11.75;;
24325;SDS011;12448;45.532;5.290;2022-10-13T02:12:38;23.67;;;11.85;;
24325;SDS011;12448;45.532;5.290;2022-10-13T02:18:47;24.02;;;11.57;;
24325;SDS011;12448;45.532;5.290;2022-10-13T02:21:42;19.25;;;11.63;;
24325;SDS011;12448;45.532;5.290;2022-10-13T02:24:09;20.45;;;12.20;;
24325;SDS011;12448;45.532;5.290;2022-10-13T02:26:36;21.20;;;12.52;;
24325;SDS011;12448;45.532;5.290;2022-10-13T02:29:09;18.90;;;11.52;;
24325;SDS011;12448;45.532;5.290;2022-10-13T02:31:40;19.08;;;11.82;;
24325;SDS011;12448;45.532;5.290;2022-10-13T02:34:53;15.43;;;10.25;;
24325;SDS011;12448;45.532;5.290;2022-10-13T02:37:53;15.95;;;9.30;;
24325;SDS011;12448;45.532;5.290;2022-10-13T02:40:19;15.98;;;9.88;;
24325;SDS011;12448;45.532;5.290;2022-10-13T02:42:45;16.75;;;10.48;;
24325;SDS011;12448;45.532;5.290;2022-10-13T02:45:10;19.38;;;10.60;;
24325;SDS011;12448;45.532;5.290;2022-10-13T02:47:36;18.98;;;11.98;;
24325;SDS011;12448;45.532;5.290;2022-10-13T02:50:05;20.80;;;11.25;;
24325;SDS011;12448;45.532;5.290;2022-10-13T02:52:57;21.20;;;11.13;;
24325;SDS011;12448;45.532;5.290;2022-10-13T02:55:23;17.88;;;11.02;;
24325;SDS011;12448;45.532;5.290;2022-10-13T02:57:48;15.20;;;10.10;;
24325;SDS011;12448;45.532;5.290;2022-10-13T03:00:14;20.40;;;11.32;;
24325;SDS011;12448;45.532;5.290;2022-10-13T03:02:40;17.55;;;11.88;;
24325;SDS011;12448;45.532;5.290;2022-10-13T03:05:06;17.98;;;11.70;;
24325;SDS011;12448;45.532;5.290;2022-10-13T03:07:32;19.77;;;10.73;;
24325;SDS011;12448;45.532;5.290;2022-10-13T03:10:01;17.48;;;9.70;;
24325;SDS011;12448;45.532;5.290;2022-10-13T03:12:27;19.00;;;10.50;;
24325;SDS011;12448;45.532;5.290;2022-10-13T03:14:53;20.30;;;10.50;;
24325;SDS011;12448;45.532;5.290;2022-10-13T03:17:18;25.50;;;12.20;;
24325;SDS011;12448;45.532;5.290;2022-10-13T03:19:44;20.65;;;11.98;;
24325;SDS011;12448;45.532;5.290;2022-10-13T03:22:10;19.60;;;12.45;;
24325;SDS011;12448;45.532;5.290;2022-10-13T03:24:38;20.92;;;12.05;;
24325;SDS011;12448;45.532;5.290;2022-10-13T03:27:04;23.98;;;12.35;;
24325;SDS011;12448;45.532;5.290;2022-10-13T03:29:30;21.77;;;11.10;;
24325;SDS011;12448;45.532;5.290;2022-10-13T03:31:56;25.17;;;12.68;;
24325;SDS011;12448;45.532;5.290;2022-10-13T03:34:21;19.88;;;12.30;;
24325;SDS011;12448;45.532;5.290;2022-10-13T03:36:47;21.73;;;10.98;;
24325;SDS011;12448;45.532;5.290;2022-10-13T03:39:14;14.90;;;9.00;;
24325;SDS011;12448;45.532;5.290;2022-10-13T03:41:40;12.52;;;8.30;;
24325;SDS011;12448;45.532;5.290;2022-10-13T03:44:05;15.20;;;9.48;;
24325;SDS011;12448;45.532;5.290;2022-10-13T03:46:31;30.17;;;12.85;;
24325;SDS011;12448;45.532;5.290;2022-10-13T03:48:57;19.92;;;10.80;;
24325;SDS011;12448;45.532;5.290;2022-10-13T03:51:23;20.30;;;11.50;;
24325;SDS011;12448;45.532;5.290;2022-10-13T03:53:50;25.27;;;12.38;;
24325;SDS011;12448;45.532;5.290;2022-10-13T03:56:23;25.70;;;14.77;;
24325;SDS011;12448;45.532;5.290;2022-10-13T03:58:51;25.92;;;13.90;;
24325;SDS011;12448;45.532;5.290;2022-10-13T04:01:23;34.63;;;15.00;;
24325;SDS011;12448;45.532;5.290;2022-10-13T04:03:53;25.08;;;14.90;;
24325;SDS011;12448;45.532;5.290;2022-10-13T04:06:20;32.15;;;16.88;;
24325;SDS011;12448;45.532;5.290;2022-10-13T04:08:46;33.17;;;16.48;;
24325;SDS011;12448;45.532;5.290;2022-10-13T04:11:13;29.40;;;15.80;;
24325;SDS011;12448;45.532;5.290;2022-10-13T04:13:40;31.35;;;16.33;;
24325;SDS011;12448;45.532;5.290;2022-10-13T04:16:07;32.92;;;16.40;;
24325;SDS011;12448;45.532;5.290;2022-10-13T04:18:41;37.95;;;17.40;;
24325;SDS011;12448;45.532;5.290;2022-10-13T04:21:08;23.48;;;14.55;;
24325;SDS011;12448;45.532;5.290;2022-10-13T04:23:35;22.48;;;12.25;;
24325;SDS011;12448;45.532;5.290;2022-10-13T04:26:01;26.67;;;14.57;;
24325;SDS011;12448;45.532;5.290;2022-10-13T04:28:28;27.27;;;14.75;;
24325;SDS011;12448;45.532;5.290;2022-10-13T04:30:54;22.45;;;12.57;;
24325;SDS011;12448;45.532;5.290;2022-10-13T04:33:19;20.88;;;11.27;;
24325;SDS011;12448;45.532;5.290;2022-10-13T04:35:45;27.55;;;12.77;;
24325;SDS011;12448;45.532;5.290;2022-10-13T04:38:11;27.38;;;14.40;;
24325;SDS011;12448;45.532;5.290;2022-10-13T04:40:36;23.25;;;12.25;;
24325;SDS011;12448;45.532;5.290;2022-10-13T04:43:02;22.75;;;12.15;;
24325;SDS011;12448;45.532;5.290;2022-10-13T04:45:28;26.77;;;14.60;;
24325;SDS011;12448;45.532;5.290;2022-10-13T04:47:53;22.38;;;14.07;;
24325;SDS011;12448;45.532;5.290;2022-10-13T04:50:19;26.90;;;13.65;;
24325;SDS011;12448;45.532;5.290;2022-10-13T04:52:45;26.63;;;14.10;;
24325;SDS011;12448;45.532;5.290;2022-10-13T04:55:11;25.38;;;14.05;;
24325;SDS011;12448;45.532;5.290;2022-10-13T04:57:36;21.85;;;12.95;;
24325;SDS011;12448;45.532;5.290;2022-10-13T05:00:04;23.05;;;12.40;;
24325;SDS011;12448;45.532;5.290;2022-10-13T05:19:18;21.23;;;11.65;;
24325;SDS011;12448;45.532;5.290;2022-10-13T05:29:08;23.45;;;12.13;;
24325;SDS011;12448;45.532;5.290;2022-10-13T05:35:37;25.45;;;12.93;;
24325;SDS011;12448;45.532;5.290;2022-10-13T05:38:30;23.40;;;12.50;;
24325;SDS011;12448;45.532;5.290;2022-10-13T05:41:36;21.88;;;12.05;;
24325;SDS011;12448;45.532;5.290;2022-10-13T05:44:45;20.50;;;11.00;;
24325;SDS011;12448;45.532;5.290;2022-10-13T05:47:52;17.90;;;11.18;;
24325;SDS011;12448;45.532;5.290;2022-10-13T05:50:33;23.67;;;11.25;;
24325;SDS011;12448;45.532;5.290;2022-10-13T05:53:15;21.15;;;11.02;;
24325;SDS011;12448;45.532;5.290;2022-10-13T05:55:41;23.63;;;10.75;;
24325;SDS011;12448;45.532;5.290;2022-10-13T05:58:07;24.63;;;10.38;;
24325;SDS011;12448;45.532;5.290;2022-10-13T06:00:33;20.25;;;11.13;;
24325;SDS011;12448;45.532;5.290;2022-10-13T06:03:13;22.20;;;12.10;;
24325;SDS011;12448;45.532;5.290;2022-10-13T06:06:10;18.08;;;10.63;;
24325;SDS011;12448;45.532;5.290;2022-10-13T06:09:17;20.40;;;11.40;;
24325;SDS011;12448;45.532;5.290;2022-10-13T06:12:06;18.83;;;10.85;;
24325;SDS011;12448;45.532;5.290;2022-10-13T06:18:47;18.75;;;10.90;;
24325;SDS011;12448;45.532;5.290;2022-10-13T06:21:13;17.85;;;11.35;;
24325;SDS011;12448;45.532;5.290;2022-10-13T06:23:39;26.80;;;11.20;;
24325;SDS011;12448;45.532;5.290;2022-10-13T06:26:05;18.42;;;10.85;;
24325;SDS011;12448;45.532;5.290;2022-10-13T06:28:32;18.02;;;10.30;;
24325;SDS011;12448;45.532;5.290;2022-10-13T06:31:02;17.55;;;10.15;;
24325;SDS011;12448;45.532;5.290;2022-10-13T06:33:30;14.70;;;10.63;;
24325;SDS011;12448;45.532;5.290;2022-10-13T06:35:59;14.48;;;10.07;;
24325;SDS011;12448;45.532;5.290;2022-10-13T06:38:28;16.50;;;10.65;;
24325;SDS011;12448;45.532;5.290;2022-10-13T06:40:58;19.08;;;10.50;;
24325;SDS011;12448;45.532;5.290;2022-10-13T06:43:59;18.13;;;9.80;;
24325;SDS011;12448;45.532;5.290;2022-10-13T06:46:34;15.73;;;9.85;;
24325;SDS011;12448;45.532;5.290;2022-10-13T06:48:59;21.13;;;10.68;;
24325;SDS011;12448;45.532;5.290;2022-10-13T06:51:25;15.05;;;10.43;;
24325;SDS011;12448;45.532;5.290;2022-10-13T06:56:53;17.95;;;10.07;;
24325;SDS011;12448;45.532;5.290;2022-10-13T06:59:48;19.23;;;10.20;;
24325;SDS011;12448;45.532;5.290;2022-10-13T07:03:05;16.58;;;9.55;;
24325;SDS011;12448;45.532;5.290;2022-10-13T07:06:29;19.10;;;10.40;;
24325;SDS011;12448;45.532;5.290;2022-10-13T07:16:23;15.45;;;10.45;;
24325;SDS011;12448;45.532;5.290;2022-10-13T07:22:33;26.05;;;11.15;;
24325;SDS011;12448;45.532;5.290;2022-10-13T07:32:04;17.00;;;10.88;;
24325;SDS011;12448;45.532;5.290;2022-10-13T07:34:30;26.83;;;12.73;;
24325;SDS011;12448;45.532;5.290;2022-10-13T07:44:03;14.50;;;9.77;;
24325;SDS011;12448;45.532;5.290;2022-10-13T07:47:31;17.08;;;9.90;;
24325;SDS011;12448;45.532;5.290;2022-10-13T07:50:46;22.45;;;12.38;;
24325;SDS011;12448;45.532;5.290;2022-10-13T07:53:45;22.02;;;13.82;;
24325;SDS011;12448;45.532;5.290;2022-10-13T07:56:23;27.42;;;16.13;;
24325;SDS011;12448;45.532;5.290;2022-10-13T07:59:27;33.33;;;18.88;;
24325;SDS011;12448;45.532;5.290;2022-10-13T08:15:25;27.27;;;15.25;;
24325;SDS011;12448;45.532;5.290;2022-10-13T08:18:53;26.65;;;15.25;;
24325;SDS011;12448;45.532;5.290;2022-10-13T08:21:31;25.52;;;16.38;;
24325;SDS011;12448;45.532;5.290;2022-10-13T08:27:50;26.05;;;14.80;;
24325;SDS011;12448;45.532;5.290;2022-10-13T08:30:16;24.67;;;15.30;;
24325;SDS011;12448;45.532;5.290;2022-10-13T08:32:48;24.30;;;14.32;;
24325;SDS011;12448;45.532;5.290;2022-10-13T08:35:16;31.73;;;15.20;;
24325;SDS011;12448;45.532;5.290;2022-10-13T08:37:45;23.65;;;14.48;;
24325;SDS011;12448;45.532;5.290;2022-10-13T08:40:12;19.63;;;13.10;;
24325;SDS011;12448;45.532;5.290;2022-10-13T08:42:44;19.08;;;13.30;;
24325;SDS011;12448;45.532;5.290;2022-10-13T08:45:31;23.70;;;13.02;;
24325;SDS011;12448;45.532;5.290;2022-10-13T08:48:01;18.40;;;11.60;;
24325;SDS011;12448;45.532;5.290;2022-10-13T08:50:32;21.83;;;12.80;;
24325;SDS011;12448;45.532;5.290;2022-10-13T08:53:50;21.88;;;13.75;;
24325;SDS011;12448;45.532;5.290;2022-10-13T08:56:18;23.30;;;13.20;;
24325;SDS011;12448;45.532;5.290;2022-10-13T08:58:50;21.67;;;13.63;;
24325;SDS011;12448;45.532;5.290;2022-10-13T09:03:52;21.35;;;12.75;;
24325;SDS011;12448;45.532;5.290;2022-10-13T09:06:37;19.65;;;12.52;;
24325;SDS011;12448;45.532;5.290;2022-10-13T09:09:15;24.50;;;12.65;;
24325;SDS011;12448;45.532;5.290;2022-10-13T09:11:45;20.65;;;14.00;;
24325;SDS011;12448;45.532;5.290;2022-10-13T09:14:20;22.40;;;12.68;;
24325;SDS011;12448;45.532;5.290;2022-10-13T09:16:52;23.48;;;12.10;;
24325;SDS011;12448;45.532;5.290;2022-10-13T09:19:29;24.33;;;12.75;;
24325;SDS011;12448;45.532;5.290;2022-10-13T09:22:20;23.70;;;13.68;;
24325;SDS011;12448;45.532;5.290;2022-10-13T09:27:48;22.25;;;12.38;;
24325;SDS011;12448;45.532;5.290;2022-10-13T09:35:36;24.92;;;13.13;;
24325;SDS011;12448;45.532;5.290;2022-10-13T09:38:12;20.83;;;12.43;;
24325;SDS011;12448;45.532;5.290;2022-10-13T09:47:00;21.88;;;12.38;;
24325;SDS011;12448;45.532;5.290;2022-10-13T09:50:00;20.50;;;11.57;;
24325;SDS011;12448;45.532;5.290;2022-10-13T10:12:22;22.58;;;13.00;;
24325;SDS011;12448;45.532;5.290;2022-10-13T10:45:36;27.15;;;14.27;;
24325;SDS011;12448;45.532;5.290;2022-10-13T10:51:08;20.88;;;11.63;;
24325;SDS011;12448;45.532;5.290;2022-10-13T11:02:11;19.83;;;11.77;;
24325;SDS011;12448;45.532;5.290;2022-10-13T11:11:41;24.00;;;11.85;;
24325;SDS011;12448;45.532;5.290;2022-10-13T11:21:15;19.15;;;12.27;;
24325;SDS011;12448;45.532;5.290;2022-10-13T12:40:16;19.00;;;9.00;;
24325;SDS011;12448;45.532;5.290;2022-10-13T12:43:28;22.23;;;9.35;;
24325;SDS011;12448;45.532;5.290;2022-10-13T12:49:31;17.67;;;7.30;;
24325;SDS011;12448;45.532;5.290;2022-10-13T12:58:23;20.30;;;7.65;;
24325;SDS011;12448;45.532;5.290;2022-10-13T13:01:29;19.63;;;8.52;;
24325;SDS011;12448;45.532;5.290;2022-10-13T13:04:16;14.05;;;7.80;;
24325;SDS011;12448;45.532;5.290;2022-10-13T13:12:36;17.98;;;7.07;;
24325;SDS011;12448;45.532;5.290;2022-10-13T13:20:50;21.95;;;7.22;;
24325;SDS011;12448;45.532;5.290;2022-10-13T13:23:18;17.25;;;7.20;;
24325;SDS011;12448;45.532;5.290;2022-10-13T13:25:46;15.32;;;6.80;;
24325;SDS011;12448;45.532;5.290;2022-10-13T13:28:13;13.13;;;6.32;;
24325;SDS011;12448;45.532;5.290;2022-10-13T13:30:40;18.27;;;6.70;;
24325;SDS011;12448;45.532;5.290;2022-10-13T13:33:07;18.75;;;7.90;;
24325;SDS011;12448;45.532;5.290;2022-10-13T13:35:35;21.20;;;7.72;;
24325;SDS011;12448;45.532;5.290;2022-10-13T13:38:02;13.93;;;7.40;;
24325;SDS011;12448;45.532;5.290;2022-10-13T13:40:28;17.45;;;9.38;;
24325;SDS011;12448;45.532;5.290;2022-10-13T13:42:55;19.27;;;8.30;;
24325;SDS011;12448;45.532;5.290;2022-10-13T13:45:22;24.33;;;9.57;;
24325;SDS011;12448;45.532;5.290;2022-10-13T13:47:51;17.65;;;8.60;;
24325;SDS011;12448;45.532;5.290;2022-10-13T13:50:24;22.60;;;8.95;;
24325;SDS011;12448;45.532;5.290;2022-10-13T13:52:51;14.15;;;7.68;;
24325;SDS011;12448;45.532;5.290;2022-10-13T13:55:17;18.70;;;7.75;;
24325;SDS011;12448;45.532;5.290;2022-10-13T13:57:43;18.50;;;8.05;;
24325;SDS011;12448;45.532;5.290;2022-10-13T14:00:26;17.88;;;7.82;;
24325;SDS011;12448;45.532;5.290;2022-10-13T14:02:52;17.92;;;6.72;;
24325;SDS011;12448;45.532;5.290;2022-10-13T14:05:18;13.38;;;6.57;;
24325;SDS011;12448;45.532;5.290;2022-10-13T14:07:44;13.40;;;7.13;;
24325;SDS011;12448;45.532;5.290;2022-10-13T14:10:10;20.90;;;7.55;;
24325;SDS011;12448;45.532;5.290;2022-10-13T14:12:36;16.40;;;8.40;;
24325;SDS011;12448;45.532;5.290;2022-10-13T14:15:02;15.85;;;8.55;;
24325;SDS011;12448;45.532;5.290;2022-10-13T14:17:29;15.60;;;9.02;;
24325;SDS011;12448;45.532;5.290;2022-10-13T14:19:55;19.27;;;8.88;;
24325;SDS011;12448;45.532;5.290;2022-10-13T14:22:21;19.65;;;9.02;;
24325;SDS011;12448;45.532;5.290;2022-10-13T14:24:50;18.02;;;9.98;;
24325;SDS011;12448;45.532;5.290;2022-10-13T14:27:24;16.05;;;9.45;;
24325;SDS011;12448;45.532;5.290;2022-10-13T14:29:50;15.25;;;10.20;;
24325;SDS011;12448;45.532;5.290;2022-10-13T14:32:16;26.10;;;10.15;;
24325;SDS011;12448;45.532;5.290;2022-10-13T14:34:42;18.60;;;11.30;;
24325;SDS011;12448;45.532;5.290;2022-10-13T14:37:08;25.38;;;11.85;;
24325;SDS011;12448;45.532;5.290;2022-10-13T14:39:34;24.63;;;11.13;;
24325;SDS011;12448;45.532;5.290;2022-10-13T14:41:59;23.13;;;11.88;;
24325;SDS011;12448;45.532;5.290;2022-10-13T14:44:25;18.73;;;11.23;;
24325;SDS011;12448;45.532;5.290;2022-10-13T14:47:00;21.35;;;12.15;;
24325;SDS011;12448;45.532;5.290;2022-10-13T14:49:26;22.65;;;11.82;;
24325;SDS011;12448;45.532;5.290;2022-10-13T14:51:52;18.70;;;10.25;;
24325;SDS011;12448;45.532;5.290;2022-10-13T14:54:18;27.88;;;12.13;;
24325;SDS011;12448;45.532;5.290;2022-10-13T14:56:44;23.55;;;11.55;;
24325;SDS011;12448;45.532;5.290;2022-10-13T14:59:09;20.65;;;11.82;;
24325;SDS011;12448;45.532;5.290;2022-10-13T15:01:36;27.70;;;12.23;;
24325;SDS011;12448;45.532;5.290;2022-10-13T15:04:03;24.20;;;11.80;;
24325;SDS011;12448;45.532;5.290;2022-10-13T15:06:29;20.92;;;11.63;;
24325;SDS011;12448;45.532;5.290;2022-10-13T15:08:56;22.50;;;12.23;;
24325;SDS011;12448;45.532;5.290;2022-10-13T15:30:40;26.33;;;13.52;;
24325;SDS011;12448;45.532;5.290;2022-10-13T15:37:09;25.10;;;12.75;;
24325;SDS011;12448;45.532;5.290;2022-10-13T15:41:13;28.35;;;13.45;;
24325;SDS011;12448;45.532;5.290;2022-10-13T15:44:06;26.58;;;13.52;;
24325;SDS011;12448;45.532;5.290;2022-10-13T15:50:32;21.65;;;14.07;;
24325;SDS011;12448;45.532;5.290;2022-10-13T15:54:05;24.60;;;13.32;;
24325;SDS011;12448;45.532;5.290;2022-10-13T15:57:17;26.60;;;13.85;;
24325;SDS011;12448;45.532;5.290;2022-10-13T15:59:42;24.92;;;13.23;;
24325;SDS011;12448;45.532;5.290;2022-10-13T16:02:09;21.35;;;13.10;;
24325;SDS011;12448;45.532;5.290;2022-10-13T16:04:35;21.77;;;13.52;;
24325;SDS011;12448;45.532;5.290;2022-10-13T16:07:00;23.52;;;13.52;;
24325;SDS011;12448;45.532;5.290;2022-10-13T16:09:26;29.63;;;14.25;;
24325;SDS011;12448;45.532;5.290;2022-10-13T16:11:52;24.25;;;14.38;;
24325;SDS011;12448;45.532;5.290;2022-10-13T16:14:18;25.88;;;13.88;;
24325;SDS011;12448;45.532;5.290;2022-10-13T16:16:44;27.35;;;15.23;;
24325;SDS011;12448;45.532;5.290;2022-10-13T16:19:10;23.75;;;13.88;;
24325;SDS011;12448;45.532;5.290;2022-10-13T16:22:36;27.38;;;13.93;;
24325;SDS011;12448;45.532;5.290;2022-10-13T16:24:40;22.08;;;14.07;;
24325;SDS011;12448;45.532;5.290;2022-10-13T16:27:21;27.10;;;14.63;;
24325;SDS011;12448;45.532;5.290;2022-10-13T16:29:48;30.13;;;14.55;;
24325;SDS011;12448;45.532;5.290;2022-10-13T16:32:14;23.50;;;13.82;;
24325;SDS011;12448;45.532;5.290;2022-10-13T16:34:40;22.23;;;13.18;;
24325;SDS011;12448;45.532;5.290;2022-10-13T16:37:06;22.50;;;14.18;;
24325;SDS011;12448;45.532;5.290;2022-10-13T16:39:31;24.27;;;14.25;;
24325;SDS011;12448;45.532;5.290;2022-10-13T16:41:57;26.98;;;15.52;;
24325;SDS011;12448;45.532;5.290;2022-10-13T16:44:22;28.25;;;14.18;;
24325;SDS011;12448;45.532;5.290;2022-10-13T16:46:48;24.92;;;12.65;;
24325;SDS011;12448;45.532;5.290;2022-10-13T16:49:19;25.25;;;14.18;;
24325;SDS011;12448;45.532;5.290;2022-10-13T16:51:48;27.60;;;14.60;;
24325;SDS011;12448;45.532;5.290;2022-10-13T16:54:13;24.75;;;13.80;;
24325;SDS011;12448;45.532;5.290;2022-10-13T16:56:39;24.83;;;13.18;;
24325;SDS011;12448;45.532;5.290;2022-10-13T16:59:05;26.10;;;14.10;;
24325;SDS011;12448;45.532;5.290;2022-10-13T17:01:32;21.83;;;12.60;;
24325;SDS011;12448;45.532;5.290;2022-10-13T17:03:59;26.27;;;13.88;;
24325;SDS011;12448;45.532;5.290;2022-10-13T17:06:26;23.63;;;13.02;;
24325;SDS011;12448;45.532;5.290;2022-10-13T17:08:52;23.05;;;12.35;;
24325;SDS011;12448;45.532;5.290;2022-10-13T17:11:19;28.38;;;12.77;;
24325;SDS011;12448;45.532;5.290;2022-10-13T17:13:47;26.77;;;13.57;;
24325;SDS011;12448;45.532;5.290;2022-10-13T17:16:13;27.90;;;13.82;;
24325;SDS011;12448;45.532;5.290;2022-10-13T17:18:42;23.77;;;13.13;;
24325;SDS011;12448;45.532;5.290;2022-10-13T17:21:09;24.20;;;13.95;;
24325;SDS011;12448;45.532;5.290;2022-10-13T17:23:37;25.60;;;13.82;;
24325;SDS011;12448;45.532;5.290;2022-10-13T17:26:08;20.67;;;14.02;;
24325;SDS011;12448;45.532;5.290;2022-10-13T17:28:35;26.00;;;13.65;;
24325;SDS011;12448;45.532;5.290;2022-10-13T17:31:03;22.95;;;13.32;;
24325;SDS011;12448;45.532;5.290;2022-10-13T17:33:45;26.63;;;14.15;;
24325;SDS011;12448;45.532;5.290;2022-10-13T17:36:19;28.38;;;14.82;;
24325;SDS011;12448;45.532;5.290;2022-10-13T17:38:45;28.45;;;14.27;;
24325;SDS011;12448;45.532;5.290;2022-10-13T17:41:12;31.10;;;17.27;;
24325;SDS011;12448;45.532;5.290;2022-10-13T17:43:38;30.08;;;16.83;;
24325;SDS011;12448;45.532;5.290;2022-10-13T17:46:11;25.30;;;14.05;;
24325;SDS011;12448;45.532;5.290;2022-10-13T17:48:39;28.73;;;15.25;;
24325;SDS011;12448;45.532;5.290;2022-10-13T17:51:06;26.73;;;14.55;;
24325;SDS011;12448;45.532;5.290;2022-10-13T17:53:33;26.80;;;14.07;;
24325;SDS011;12448;45.532;5.290;2022-10-13T17:56:01;22.98;;;14.02;;
24325;SDS011;12448;45.532;5.290;2022-10-13T17:58:28;27.98;;;16.70;;
24325;SDS011;12448;45.532;5.290;2022-10-13T18:01:04;23.83;;;15.27;;
24325;SDS011;12448;45.532;5.290;2022-10-13T18:03:35;26.27;;;14.75;;
24325;SDS011;12448;45.532;5.290;2022-10-13T18:06:04;29.40;;;15.48;;
24325;SDS011;12448;45.532;5.290;2022-10-13T18:08:31;23.20;;;14.68;;
24325;SDS011;12448;45.532;5.290;2022-10-13T18:11:02;27.33;;;14.95;;
24325;SDS011;12448;45.532;5.290;2022-10-13T18:13:32;26.45;;;15.98;;
24325;SDS011;12448;45.532;5.290;2022-10-13T18:18:51;24.67;;;16.95;;
24325;SDS011;12448;45.532;5.290;2022-10-13T18:21:22;25.45;;;14.82;;
24325;SDS011;12448;45.532;5.290;2022-10-13T18:23:50;22.13;;;15.02;;
24325;SDS011;12448;45.532;5.290;2022-10-13T18:26:35;23.92;;;15.73;;
24325;SDS011;12448;45.532;5.290;2022-10-13T18:29:00;26.35;;;17.17;;
24325;SDS011;12448;45.532;5.290;2022-10-13T18:31:32;34.47;;;20.38;;
24325;SDS011;12448;45.532;5.290;2022-10-13T18:34:00;32.90;;;19.13;;
24325;SDS011;12448;45.532;5.290;2022-10-13T18:39:04;38.47;;;18.95;;
24325;SDS011;12448;45.532;5.290;2022-10-13T18:41:32;25.15;;;17.92;;
24325;SDS011;12448;45.532;5.290;2022-10-13T18:44:00;31.25;;;18.48;;
24325;SDS011;12448;45.532;5.290;2022-10-13T18:46:35;33.63;;;20.00;;
24325;SDS011;12448;45.532;5.290;2022-10-13T18:49:02;34.53;;;20.20;;
24325;SDS011;12448;45.532;5.290;2022-10-13T18:51:30;28.98;;;18.45;;
24325;SDS011;12448;45.532;5.290;2022-10-13T18:53:57;31.45;;;17.77;;
24325;SDS011;12448;45.532;5.290;2022-10-13T18:56:24;23.05;;;16.45;;
24325;SDS011;12448;45.532;5.290;2022-10-13T18:58:54;31.80;;;18.20;;
24325;SDS011;12448;45.532;5.290;2022-10-13T19:01:22;31.13;;;18.13;;
24325;SDS011;12448;45.532;5.290;2022-10-13T19:03:49;27.38;;;18.20;;
24325;SDS011;12448;45.532;5.290;2022-10-13T19:06:16;36.78;;;18.15;;
24325;SDS011;12448;45.532;5.290;2022-10-13T19:08:44;34.15;;;19.25;;
24325;SDS011;12448;45.532;5.290;2022-10-13T19:13:41;36.80;;;20.05;;
24325;SDS011;12448;45.532;5.290;2022-10-13T19:16:08;33.00;;;19.30;;
24325;SDS011;12448;45.532;5.290;2022-10-13T19:18:35;32.45;;;20.05;;
24325;SDS011;12448;45.532;5.290;2022-10-13T19:21:01;32.47;;;20.05;;
24325;SDS011;12448;45.532;5.290;2022-10-13T19:23:27;33.72;;;21.25;;
24325;SDS011;12448;45.532;5.290;2022-10-13T19:25:53;30.65;;;20.50;;
24325;SDS011;12448;45.532;5.290;2022-10-13T19:28:18;34.92;;;21.27;;
24325;SDS011;12448;45.532;5.290;2022-10-13T19:30:45;35.92;;;20.52;;
24325;SDS011;12448;45.532;5.290;2022-10-13T19:33:12;36.25;;;22.42;;
24325;SDS011;12448;45.532;5.290;2022-10-13T19:35:43;35.55;;;22.42;;
24325;SDS011;12448;45.532;5.290;2022-10-13T19:38:10;40.13;;;22.10;;
24325;SDS011;12448;45.532;5.290;2022-10-13T19:40:40;32.80;;;22.75;;
24325;SDS011;12448;45.532;5.290;2022-10-13T19:43:07;33.83;;;22.45;;
24325;SDS011;12448;45.532;5.290;2022-10-13T19:45:33;34.90;;;21.90;;
24325;SDS011;12448;45.532;5.290;2022-10-13T19:48:10;32.88;;;22.33;;
24325;SDS011;12448;45.532;5.290;2022-10-13T19:50:40;34.80;;;22.80;;
24325;SDS011;12448;45.532;5.290;2022-10-13T19:53:08;38.28;;;22.17;;
24325;SDS011;12448;45.532;5.290;2022-10-13T19:55:41;34.08;;;22.98;;
24325;SDS011;12448;45.532;5.290;2022-10-13T19:58:10;39.80;;;22.40;;
24325;SDS011;12448;45.532;5.290;2022-10-13T20:00:38;37.75;;;21.65;;
24325;SDS011;12448;45.532;5.290;2022-10-13T20:03:03;38.60;;;24.10;;
24325;SDS011;12448;45.532;5.290;2022-10-13T20:05:32;47.92;;;24.23;;
24325;SDS011;12448;45.532;5.290;2022-10-13T20:08:01;34.50;;;22.52;;
24325;SDS011;12448;45.532;5.290;2022-10-13T20:10:30;33.90;;;22.48;;
24325;SDS011;12448;45.532;5.290;2022-10-13T20:12:56;38.88;;;23.20;;
24325;SDS011;12448;45.532;5.290;2022-10-13T20:15:21;43.97;;;24.25;;
24325;SDS011;12448;45.532;5.290;2022-10-13T20:17:50;38.75;;;23.92;;
24325;SDS011;12448;45.532;5.290;2022-10-13T20:20:16;35.13;;;24.23;;
24325;SDS011;12448;45.532;5.290;2022-10-13T20:22:42;35.05;;;24.33;;
24325;SDS011;12448;45.532;5.290;2022-10-13T20:25:11;37.40;;;24.13;;
24325;SDS011;12448;45.532;5.290;2022-10-13T20:27:39;40.50;;;24.13;;
24325;SDS011;12448;45.532;5.290;2022-10-13T20:30:07;39.90;;;25.13;;
24325;SDS011;12448;45.532;5.290;2022-10-13T20:32:33;40.60;;;26.10;;
24325;SDS011;12448;45.532;5.290;2022-10-13T20:34:59;47.17;;;28.50;;
24325;SDS011;12448;45.532;5.290;2022-10-13T20:37:25;54.33;;;29.75;;
24325;SDS011;12448;45.532;5.290;2022-10-13T20:39:51;49.78;;;29.55;;
24325;SDS011;12448;45.532;5.290;2022-10-13T20:42:16;67.13;;;32.08;;
24325;SDS011;12448;45.532;5.290;2022-10-13T20:44:42;65.68;;;32.85;;
24325;SDS011;12448;45.532;5.290;2022-10-13T20:47:08;54.97;;;30.98;;
24325;SDS011;12448;45.532;5.290;2022-10-13T20:49:34;55.05;;;30.42;;
24325;SDS011;12448;45.532;5.290;2022-10-13T20:52:00;57.00;;;31.38;;
24325;SDS011;12448;45.532;5.290;2022-10-13T20:54:26;54.13;;;30.80;;
24325;SDS011;12448;45.532;5.290;2022-10-13T20:56:52;46.50;;;29.88;;
24325;SDS011;12448;45.532;5.290;2022-10-13T20:59:18;50.08;;;29.23;;
24325;SDS011;12448;45.532;5.290;2022-10-13T21:01:44;51.47;;;29.98;;
24325;SDS011;12448;45.532;5.290;2022-10-13T21:04:11;53.83;;;29.23;;
24325;SDS011;12448;45.532;5.290;2022-10-13T21:06:37;50.25;;;28.98;;